Home   Weather   India   Jalgaon   Past weeks
Flag for India

Past Weather in Jalgaon, Maharashtra, India — Yesterday and Last 2 Weeks

Currently: 91 °F. Haze. (Weather station: Mumbai / Santacruz, India). See more current weather

Past Weather in Jalgaon — Graph

°F

Jalgaon Temperature Yesterday

Maximum temperature yesterday: 104 °F (at 12:00 pm)
Minimum temperature yesterday: 86 °F (at 12:30 am)
Average temperature yesterday: 94 °F

High & Low Weather Summary for the Past Weeks

 TemperatureHumidityPressure
High104 °F (Apr 16, 12:00 pm)89% (Apr 5, 6:30 am)29.92 "Hg (Apr 5, 6:30 am)
Low79 °F (Apr 5, 6:30 am)18% (Apr 7, 3:00 pm)29.68 "Hg (Apr 6, 3:30 pm)
Average86 °F64%29.80 "Hg
* Reported Apr 2 10:30 am — Apr 17 10:30 am, Jalgaon. Weather by CustomWeather, © 2024

Note: Actual official high and low records may vary slightly from our data, if they occured in-between our weather recording intervals... More about our weather records

Jalgaon Weather History for the Previous 24 Hours

Scroll right to see more
 ConditionsComfort  
Time TempWeatherWind HumidityBarometerVisibility
10:30 am
Wed, Apr 17
91 °FHaze.13 mph71%29.83 "Hg1 mi
10:00 am90 °FScattered clouds.13 mph79%29.83 "Hg1 mi
9:30 am91 °FHaze.7 mph67%29.83 "Hg1 mi
9:00 am90 °FFog.7 mph71%29.80 "Hg1 mi
8:30 am88 °FFog.8 mph84%29.80 "Hg1 mi
8:00 am86 °FFog.5 mph89%29.80 "Hg1 mi
7:30 am86 °FPartly sunny.5 mph84%29.77 "Hg2 mi
7:00 am86 °FPartly sunny.5 mph84%29.74 "Hg2 mi
6:30 am86 °FPassing clouds.No wind84%29.74 "Hg1 mi
6:00 am86 °FHaze.6 mph79%29.74 "Hg1 mi
5:00 am86 °FHaze.3 mph79%29.74 "Hg1 mi
4:30 am86 °FHaze.10 mph79%29.74 "Hg1 mi
4:00 am86 °FHaze.5 mph79%29.74 "Hg1 mi
3:30 am86 °FHaze.5 mph79%29.74 "Hg1 mi
3:00 am86 °FFog.5 mph79%29.74 "Hg1 mi
2:30 am86 °FFog.7 mph79%29.77 "Hg1 mi
2:00 am86 °FFog.6 mph79%29.77 "Hg1 mi
1:30 am86 °FFog.9 mph84%29.77 "Hg1 mi
1:00 am88 °FFog.7 mph84%29.77 "Hg1 mi
12:30 am88 °FHaze.8 mph75%29.77 "Hg1 mi
12:00 am88 °FHaze.7 mph75%29.80 "Hg1 mi
11:30 pm
Tue, Apr 16
88 °FHaze.7 mph79%29.80 "Hg1 mi
11:00 pm90 °FHaze.5 mph75%29.80 "Hg1 mi
10:30 pm91 °FHaze.7 mph63%29.77 "Hg1 mi
10:00 pm91 °FClear.5 mph63%29.77 "Hg1 mi
9:30 pm91 °FClear.3 mph59%29.77 "Hg1 mi
9:00 pm93 °FClear.5 mph56%29.77 "Hg2 mi
8:30 pm95 °FClear.6 mph47%29.74 "Hg2 mi
8:00 pm93 °FClear.5 mph49%29.74 "Hg2 mi
7:30 pm95 °FClear.5 mph47%29.74 "Hg2 mi
7:00 pm95 °FClear.3 mph44%29.71 "Hg2 mi
6:30 pm97 °FClear.6 mph42%29.71 "Hg2 mi
6:00 pm97 °FClear.8 mph39%29.71 "Hg2 mi
5:30 pm99 °FClear.12 mph35%29.68 "Hg2 mi
5:00 pm100 °FClear.8 mph33%29.68 "Hg2 mi
4:30 pm100 °FClear.10 mph33%29.71 "Hg2 mi
4:00 pm99 °FClear.13 mph35%29.71 "Hg2 mi
3:30 pm100 °FClear.12 mph35%29.71 "Hg2 mi
3:00 pm99 °FClear.10 mph42%29.71 "Hg2 mi
2:30 pm100 °FPassing clouds.13 mph40%29.71 "Hg2 mi
2:00 pm102 °FPassing clouds.14 mph31%29.74 "Hg2 mi
1:30 pm100 °FPassing clouds.14 mph35%29.74 "Hg2 mi
1:00 pm102 °FPassing clouds.9 mph37%29.77 "Hg2 mi
12:30 pm100 °FPassing clouds.12 mph42%29.77 "Hg2 mi
12:00 pm104 °FPassing clouds.8 mph26%29.80 "Hg2 mi
Weather by CustomWeather, © 2024

See weather overview